sensor_id;sensor_type;location;lat;lon;timestamp;pressure;altitude;pressure_sealevel;temperature;humidity
23223;BME280;11780;13.904;100.620;2023-04-25T00:01:23;100940.97;;;32.75;65.86
23223;BME280;11780;13.904;100.620;2023-04-25T00:03:53;100945.34;;;32.76;65.85
23223;BME280;11780;13.904;100.620;2023-04-25T00:06:24;100950.72;;;32.73;65.85
23223;BME280;11780;13.904;100.620;2023-04-25T00:08:56;100953.19;;;32.74;65.87
23223;BME280;11780;13.904;100.620;2023-04-25T00:11:26;100953.19;;;32.74;65.92
23223;BME280;11780;13.904;100.620;2023-04-25T00:13:57;100952.22;;;32.70;65.65
23223;BME280;11780;13.904;100.620;2023-04-25T00:16:27;100966.06;;;32.70;65.90
23223;BME280;11780;13.904;100.620;2023-04-25T00:18:59;100962.63;;;32.73;65.59
23223;BME280;11780;13.904;100.620;2023-04-25T00:21:30;100966.22;;;32.74;65.60
23223;BME280;11780;13.904;100.620;2023-04-25T00:24:01;100971.75;;;32.74;65.55
23223;BME280;11780;13.904;100.620;2023-04-25T00:26:32;100979.91;;;32.70;65.73
23223;BME280;11780;13.904;100.620;2023-04-25T00:29:03;100975.84;;;32.76;65.62
23223;BME280;11780;13.904;100.620;2023-04-25T00:31:33;100972.09;;;32.72;65.67
23223;BME280;11780;13.904;100.620;2023-04-25T00:34:04;100975.00;;;32.76;65.34
23223;BME280;11780;13.904;100.620;2023-04-25T00:36:35;100964.91;;;32.71;65.18
23223;BME280;11780;13.904;100.620;2023-04-25T00:39:06;100982.03;;;32.73;65.05
23223;BME280;11780;13.904;100.620;2023-04-25T00:41:37;100973.72;;;32.73;65.12
23223;BME280;11780;13.904;100.620;2023-04-25T00:44:08;100978.13;;;32.74;64.82
23223;BME280;11780;13.904;100.620;2023-04-25T00:46:43;100993.25;;;32.77;64.94
23223;BME280;11780;13.904;100.620;2023-04-25T00:49:14;100998.31;;;32.75;65.07
23223;BME280;11780;13.904;100.620;2023-04-25T00:51:46;100993.91;;;32.74;64.91
23223;BME280;11780;13.904;100.620;2023-04-25T00:54:16;101006.31;;;32.76;64.79
23223;BME280;11780;13.904;100.620;2023-04-25T00:56:47;101000.41;;;32.78;65.01
23223;BME280;11780;13.904;100.620;2023-04-25T00:59:19;100998.00;;;32.76;65.07
23223;BME280;11780;13.904;100.620;2023-04-25T01:01:50;101005.16;;;32.77;64.94
23223;BME280;11780;13.904;100.620;2023-04-25T01:04:20;101008.38;;;32.79;65.05
23223;BME280;11780;13.904;100.620;2023-04-25T01:06:51;101006.31;;;32.76;64.69
23223;BME280;11780;13.904;100.620;2023-04-25T01:09:22;101012.28;;;32.78;64.95
23223;BME280;11780;13.904;100.620;2023-04-25T01:11:53;101010.00;;;32.80;64.58
23223;BME280;11780;13.904;100.620;2023-04-25T01:14:23;101019.66;;;32.83;64.70
23223;BME280;11780;13.904;100.620;2023-04-25T01:16:54;101016.22;;;32.86;64.86
23223;BME280;11780;13.904;100.620;2023-04-25T01:19:25;101022.09;;;32.85;64.93
23223;BME280;11780;13.904;100.620;2023-04-25T01:21:57;101022.59;;;32.87;65.01
23223;BME280;11780;13.904;100.620;2023-04-25T01:24:28;101019.16;;;32.90;65.14
23223;BME280;11780;13.904;100.620;2023-04-25T01:27:00;101009.22;;;32.89;65.30
23223;BME280;11780;13.904;100.620;2023-04-25T01:29:32;101017.53;;;32.89;65.41
23223;BME280;11780;13.904;100.620;2023-04-25T01:32:04;101025.50;;;32.90;65.42
23223;BME280;11780;13.904;100.620;2023-04-25T01:34:35;101023.22;;;32.92;65.33
23223;BME280;11780;13.904;100.620;2023-04-25T01:37:05;101022.88;;;32.94;65.35
23223;BME280;11780;13.904;100.620;2023-04-25T01:39:36;101026.47;;;32.94;65.08
23223;BME280;11780;13.904;100.620;2023-04-25T01:42:06;101022.56;;;32.95;65.19
23223;BME280;11780;13.904;100.620;2023-04-25T01:44:37;101028.09;;;32.95;65.27
23223;BME280;11780;13.904;100.620;2023-04-25T01:47:08;101025.16;;;33.01;65.08
23223;BME280;11780;13.904;100.620;2023-04-25T01:49:38;101029.88;;;33.00;65.44
23223;BME280;11780;13.904;100.620;2023-04-25T01:52:08;101031.97;;;33.03;64.90
23223;BME280;11780;13.904;100.620;2023-04-25T01:54:40;101038.81;;;33.06;65.23
23223;BME280;11780;13.904;100.620;2023-04-25T01:57:15;101044.34;;;33.06;64.80
23223;BME280;11780;13.904;100.620;2023-04-25T01:59:46;101045.19;;;33.06;64.76
23223;BME280;11780;13.904;100.620;2023-04-25T02:02:37;101042.06;;;33.08;64.52
23223;BME280;11780;13.904;100.620;2023-04-25T02:05:19;101038.50;;;33.07;64.66
23223;BME280;11780;13.904;100.620;2023-04-25T02:07:51;101041.25;;;33.07;64.49
23223;BME280;11780;13.904;100.620;2023-04-25T02:10:24;101033.75;;;33.08;64.62
23223;BME280;11780;13.904;100.620;2023-04-25T02:13:06;101042.41;;;33.06;64.98
23223;BME280;11780;13.904;100.620;2023-04-25T02:16:03;101036.16;;;33.09;65.25
23223;BME280;11780;13.904;100.620;2023-04-25T02:18:33;101037.34;;;33.08;65.28
23223;BME280;11780;13.904;100.620;2023-04-25T02:21:06;101032.25;;;33.10;65.03
23223;BME280;11780;13.904;100.620;2023-04-25T02:23:36;101037.16;;;33.14;65.48
23223;BME280;11780;13.904;100.620;2023-04-25T02:26:06;101021.66;;;33.13;65.17
23223;BME280;11780;13.904;100.620;2023-04-25T02:28:36;101023.78;;;33.16;64.45
23223;BME280;11780;13.904;100.620;2023-04-25T02:31:07;101026.53;;;33.16;64.86
23223;BME280;11780;13.904;100.620;2023-04-25T02:33:37;101024.25;;;33.18;64.58
23223;BME280;11780;13.904;100.620;2023-04-25T02:36:08;101017.09;;;33.17;64.64
23223;BME280;11780;13.904;100.620;2023-04-25T02:38:38;101015.94;;;33.18;64.29
23223;BME280;11780;13.904;100.620;2023-04-25T02:41:09;101003.72;;;33.19;64.06
23223;BME280;11780;13.904;100.620;2023-04-25T02:43:39;101003.72;;;33.19;64.63
23223;BME280;11780;13.904;100.620;2023-04-25T02:46:10;100989.84;;;33.19;64.39
23223;BME280;11780;13.904;100.620;2023-04-25T02:48:41;100993.41;;;33.19;64.42
23223;BME280;11780;13.904;100.620;2023-04-25T02:51:11;100983.16;;;33.20;64.36
23223;BME280;11780;13.904;100.620;2023-04-25T02:53:43;100985.94;;;33.20;64.38
23223;BME280;11780;13.904;100.620;2023-04-25T02:56:14;100975.63;;;33.20;64.50
23223;BME280;11780;13.904;100.620;2023-04-25T02:58:45;100983.63;;;33.22;64.30
23223;BME280;11780;13.904;100.620;2023-04-25T03:01:15;100978.41;;;33.20;64.66
23223;BME280;11780;13.904;100.620;2023-04-25T03:03:45;100980.88;;;33.22;64.04
23223;BME280;11780;13.904;100.620;2023-04-25T03:06:16;100974.19;;;33.23;64.62
23223;BME280;11780;13.904;100.620;2023-04-25T03:08:47;100969.91;;;33.25;64.08
23223;BME280;11780;13.904;100.620;2023-04-25T03:11:17;100956.53;;;33.28;63.57
23223;BME280;11780;13.904;100.620;2023-04-25T03:13:49;100954.91;;;33.27;64.12
23223;BME280;11780;13.904;100.620;2023-04-25T03:16:21;100947.88;;;33.29;63.17
23223;BME280;11780;13.904;100.620;2023-04-25T03:18:51;100942.81;;;33.31;62.90
23223;BME280;11780;13.904;100.620;2023-04-25T03:21:21;100942.47;;;33.33;62.54
23223;BME280;11780;13.904;100.620;2023-04-25T03:23:52;100946.06;;;33.33;61.27
23223;BME280;11780;13.904;100.620;2023-04-25T03:26:22;100939.38;;;33.34;61.09
23223;BME280;11780;13.904;100.620;2023-04-25T03:28:53;100943.44;;;33.37;60.62
23223;BME280;11780;13.904;100.620;2023-04-25T03:31:23;100936.28;;;33.36;60.81
23223;BME280;11780;13.904;100.620;2023-04-25T03:33:53;100929.72;;;33.40;60.62
23223;BME280;11780;13.904;100.620;2023-04-25T03:36:24;100923.03;;;33.42;60.77
23223;BME280;11780;13.904;100.620;2023-04-25T03:38:54;100925.94;;;33.45;60.36
23223;BME280;11780;13.904;100.620;2023-04-25T03:41:26;100923.97;;;33.46;59.53
23223;BME280;11780;13.904;100.620;2023-04-25T03:44:03;100924.81;;;33.46;59.39
23223;BME280;11780;13.904;100.620;2023-04-25T03:46:34;100928.84;;;33.49;59.09
23223;BME280;11780;13.904;100.620;2023-04-25T03:49:05;100921.34;;;33.49;58.98
23223;BME280;11780;13.904;100.620;2023-04-25T03:51:56;100918.56;;;33.49;59.23
23223;BME280;11780;13.904;100.620;2023-04-25T03:54:27;100905.53;;;33.50;59.50
23223;BME280;11780;13.904;100.620;2023-04-25T03:57:24;100908.28;;;33.50;59.28
23223;BME280;11780;13.904;100.620;2023-04-25T03:59:54;100895.72;;;33.52;59.57
23223;BME280;11780;13.904;100.620;2023-04-25T04:02:27;100891.91;;;33.57;59.46
23223;BME280;11780;13.904;100.620;2023-04-25T04:04:58;100887.84;;;33.54;59.63
23223;BME280;11780;13.904;100.620;2023-04-25T04:07:29;100892.59;;;33.54;59.67
23223;BME280;11780;13.904;100.620;2023-04-25T04:10:02;100884.63;;;33.52;59.72
23223;BME280;11780;13.904;100.620;2023-04-25T04:12:36;100880.38;;;33.55;59.49
23223;BME280;11780;13.904;100.620;2023-04-25T04:15:06;100878.75;;;33.54;59.60
23223;BME280;11780;13.904;100.620;2023-04-25T04:17:37;100870.19;;;33.59;59.42
23223;BME280;11780;13.904;100.620;2023-04-25T04:20:08;100868.09;;;33.56;59.52
23223;BME280;11780;13.904;100.620;2023-04-25T04:22:40;100867.78;;;33.58;59.14
23223;BME280;11780;13.904;100.620;2023-04-25T04:25:13;100872.97;;;33.59;59.08
23223;BME280;11780;13.904;100.620;2023-04-25T04:28:18;100865.13;;;33.61;58.72
23223;BME280;11780;13.904;100.620;2023-04-25T04:30:54;100859.94;;;33.60;59.00
23223;BME280;11780;13.904;100.620;2023-04-25T04:33:25;100865.13;;;33.61;58.86
23223;BME280;11780;13.904;100.620;2023-04-25T04:36:00;100861.19;;;33.62;58.82
23223;BME280;11780;13.904;100.620;2023-04-25T04:38:31;100862.81;;;33.63;58.73
23223;BME280;11780;13.904;100.620;2023-04-25T04:41:03;100859.03;;;33.68;58.72
23223;BME280;11780;13.904;100.620;2023-04-25T04:43:48;100850.22;;;33.66;58.55
23223;BME280;11780;13.904;100.620;2023-04-25T04:46:30;100848.59;;;33.65;58.41
23223;BME280;11780;13.904;100.620;2023-04-25T04:49:13;100838.81;;;33.67;58.39
23223;BME280;11780;13.904;100.620;2023-04-25T04:51:43;100848.75;;;33.68;58.51
23223;BME280;11780;13.904;100.620;2023-04-25T04:54:40;100838.34;;;33.65;58.66
23223;BME280;11780;13.904;100.620;2023-04-25T04:57:17;100832.78;;;33.65;58.23
23223;BME280;11780;13.904;100.620;2023-04-25T05:00:01;100822.50;;;33.66;58.26
23223;BME280;11780;13.904;100.620;2023-04-25T05:03:06;100820.88;;;33.65;58.27
23223;BME280;11780;13.904;100.620;2023-04-25T05:05:55;100815.00;;;33.66;58.66
23223;BME280;11780;13.904;100.620;2023-04-25T05:08:46;100811.06;;;33.67;58.47
23223;BME280;11780;13.904;100.620;2023-04-25T05:11:36;100799.63;;;33.69;58.27
23223;BME280;11780;13.904;100.620;2023-04-25T05:14:27;100795.34;;;33.71;57.81
23223;BME280;11780;13.904;100.620;2023-04-25T05:17:29;100792.56;;;33.71;58.11
23223;BME280;11780;13.904;100.620;2023-04-25T05:20:22;100793.50;;;33.76;57.21
23223;BME280;11780;13.904;100.620;2023-04-25T05:23:13;100782.88;;;33.78;57.31
23223;BME280;11780;13.904;100.620;2023-04-25T05:26:02;100769.84;;;33.78;57.44
23223;BME280;11780;13.904;100.620;2023-04-25T05:28:51;100770.28;;;33.80;56.97
23223;BME280;11780;13.904;100.620;2023-04-25T05:31:50;100767.50;;;33.80;56.75
23223;BME280;11780;13.904;100.620;2023-04-25T05:34:21;100769.13;;;33.81;57.00
23223;BME280;11780;13.904;100.620;2023-04-25T05:36:58;100758.03;;;33.81;56.54
23223;BME280;11780;13.904;100.620;2023-04-25T05:39:29;100756.88;;;33.82;56.62
23223;BME280;11780;13.904;100.620;2023-04-25T05:42:22;100756.56;;;33.84;56.56
23223;BME280;11780;13.904;100.620;2023-04-25T05:45:17;100747.88;;;33.85;56.44
23223;BME280;11780;13.904;100.620;2023-04-25T05:48:05;100738.03;;;33.88;55.81
23223;BME280;11780;13.904;100.620;2023-04-25T05:51:01;100730.44;;;33.85;56.02
23223;BME280;11780;13.904;100.620;2023-04-25T05:53:49;100723.25;;;33.84;56.04
23223;BME280;11780;13.904;100.620;2023-04-25T05:56:21;100711.00;;;33.85;55.89
23223;BME280;11780;13.904;100.620;2023-04-25T05:58:53;100713.44;;;33.86;55.34
23223;BME280;11780;13.904;100.620;2023-04-25T06:01:23;100713.06;;;33.88;54.94
23223;BME280;11780;13.904;100.620;2023-04-25T06:03:53;100697.28;;;33.89;54.52
23223;BME280;11780;13.904;100.620;2023-04-25T06:06:24;100698.06;;;33.89;54.31
23223;BME280;11780;13.904;100.620;2023-04-25T06:08:59;100682.56;;;33.88;54.48
23223;BME280;11780;13.904;100.620;2023-04-25T06:11:31;100682.25;;;33.90;54.28
23223;BME280;11780;13.904;100.620;2023-04-25T06:14:02;100671.16;;;33.90;54.16
23223;BME280;11780;13.904;100.620;2023-04-25T06:16:37;100670.47;;;33.93;53.98
23223;BME280;11780;13.904;100.620;2023-04-25T06:19:07;100668.59;;;33.97;53.96
23223;BME280;11780;13.904;100.620;2023-04-25T06:21:38;100663.19;;;34.00;53.89
23223;BME280;11780;13.904;100.620;2023-04-25T06:24:09;100653.91;;;34.09;53.72
23223;BME280;11780;13.904;100.620;2023-04-25T06:26:39;100647.91;;;34.07;53.83
23223;BME280;11780;13.904;100.620;2023-04-25T06:29:10;100639.56;;;34.07;53.78
23223;BME280;11780;13.904;100.620;2023-04-25T06:31:40;100631.25;;;34.07;53.95
23223;BME280;11780;13.904;100.620;2023-04-25T06:34:11;100623.38;;;34.09;53.78
23223;BME280;11780;13.904;100.620;2023-04-25T06:36:41;100616.69;;;34.10;54.00
23223;BME280;11780;13.904;100.620;2023-04-25T06:39:14;100612.28;;;34.09;53.77
23223;BME280;11780;13.904;100.620;2023-04-25T06:41:45;100602.34;;;34.08;53.86
23223;BME280;11780;13.904;100.620;2023-04-25T06:44:39;100605.47;;;34.06;54.01
23223;BME280;11780;13.904;100.620;2023-04-25T06:47:11;100604.19;;;34.04;53.99
23223;BME280;11780;13.904;100.620;2023-04-25T06:49:43;100597.00;;;34.03;53.92
23223;BME280;11780;13.904;100.620;2023-04-25T06:52:14;100587.19;;;34.05;53.63
23223;BME280;11780;13.904;100.620;2023-04-25T06:54:45;100582.44;;;34.06;53.65
23223;BME280;11780;13.904;100.620;2023-04-25T06:57:41;100575.75;;;34.07;53.55
23223;BME280;11780;13.904;100.620;2023-04-25T07:00:30;100574.13;;;34.06;53.54
23223;BME280;11780;13.904;100.620;2023-04-25T07:03:02;100567.78;;;34.05;53.46
23223;BME280;11780;13.904;100.620;2023-04-25T07:05:32;100568.25;;;34.07;53.50
23223;BME280;11780;13.904;100.620;2023-04-25T07:08:03;100567.09;;;34.08;53.17
23223;BME280;11780;13.904;100.620;2023-04-25T07:10:33;100564.41;;;34.12;53.21
23223;BME280;11780;13.904;100.620;2023-04-25T07:13:04;100553.31;;;34.12;53.23
23223;BME280;11780;13.904;100.620;2023-04-25T07:15:35;100557.69;;;34.13;53.12
23223;BME280;11780;13.904;100.620;2023-04-25T07:18:06;100558.16;;;34.15;52.92
23223;BME280;11780;13.904;100.620;2023-04-25T07:20:36;100549.47;;;34.16;53.04
23223;BME280;11780;13.904;100.620;2023-04-25T07:23:06;100538.00;;;34.18;53.14
23223;BME280;11780;13.904;100.620;2023-04-25T07:25:37;100519.50;;;34.22;53.59
23223;BME280;11780;13.904;100.620;2023-04-25T07:28:08;100511.16;;;34.22;54.45
23223;BME280;11780;13.904;100.620;2023-04-25T07:30:38;100506.53;;;34.26;55.44
23223;BME280;11780;13.904;100.620;2023-04-25T07:33:09;100497.13;;;34.31;55.97
23223;BME280;11780;13.904;100.620;2023-04-25T07:35:39;100489.25;;;34.33;56.47
23223;BME280;11780;13.904;100.620;2023-04-25T07:38:12;100489.81;;;34.39;57.42
23223;BME280;11780;13.904;100.620;2023-04-25T07:40:43;100483.09;;;34.40;57.54
23223;BME280;11780;13.904;100.620;2023-04-25T07:43:14;100490.63;;;34.39;57.60
23223;BME280;11780;13.904;100.620;2023-04-25T07:45:54;100498.13;;;34.39;58.02
23223;BME280;11780;13.904;100.620;2023-04-25T07:48:27;100505.66;;;34.38;57.78
23223;BME280;11780;13.904;100.620;2023-04-25T07:50:57;100523.94;;;34.39;57.93
23223;BME280;11780;13.904;100.620;2023-04-25T07:53:28;100528.34;;;34.40;57.49
23223;BME280;11780;13.904;100.620;2023-04-25T07:56:04;100531.56;;;34.42;58.06
23223;BME280;11780;13.904;100.620;2023-04-25T07:58:38;100530.41;;;34.43;57.95
23223;BME280;11780;13.904;100.620;2023-04-25T08:01:10;100530.41;;;34.43;57.87
23223;BME280;11780;13.904;100.620;2023-04-25T08:04:07;100537.13;;;34.42;58.04
23223;BME280;11780;13.904;100.620;2023-04-25T08:06:53;100538.75;;;34.43;57.94
23223;BME280;11780;13.904;100.620;2023-04-25T08:09:27;100535.06;;;34.39;58.32
23223;BME280;11780;13.904;100.620;2023-04-25T08:11:58;100520.47;;;34.42;58.94
23223;BME280;11780;13.904;100.620;2023-04-25T08:14:31;100496.19;;;34.39;59.46
23223;BME280;11780;13.904;100.620;2023-04-25T08:17:06;100481.03;;;34.37;59.55
23223;BME280;11780;13.904;100.620;2023-04-25T08:19:40;100463.81;;;34.31;60.17
23223;BME280;11780;13.904;100.620;2023-04-25T08:22:20;100456.19;;;34.28;59.66
23223;BME280;11780;13.904;100.620;2023-04-25T08:24:58;100460.84;;;34.24;59.80
23223;BME280;11780;13.904;100.620;2023-04-25T08:27:28;100465.50;;;34.20;59.00
23223;BME280;11780;13.904;100.620;2023-04-25T08:29:59;100511.06;;;34.19;58.77
23223;BME280;11780;13.904;100.620;2023-04-25T08:32:30;100536.41;;;34.17;59.14
23223;BME280;11780;13.904;100.620;2023-04-25T08:35:15;100538.72;;;34.15;58.37
23223;BME280;11780;13.904;100.620;2023-04-25T08:37:47;100553.31;;;34.12;57.86
23223;BME280;11780;13.904;100.620;2023-04-25T08:40:22;100556.31;;;34.07;55.93
23223;BME280;11780;13.904;100.620;2023-04-25T08:43:09;100590.66;;;34.02;54.40
23223;BME280;11780;13.904;100.620;2023-04-25T08:45:42;100586.88;;;33.94;54.30
23223;BME280;11780;13.904;100.620;2023-04-25T08:48:35;100577.13;;;33.88;54.07
23223;BME280;11780;13.904;100.620;2023-04-25T08:51:07;100585.25;;;33.81;54.72
23223;BME280;11780;13.904;100.620;2023-04-25T08:53:39;100591.47;;;33.78;54.75
23223;BME280;11780;13.904;100.620;2023-04-25T08:56:16;100582.94;;;33.70;54.09
23223;BME280;11780;13.904;100.620;2023-04-25T08:58:57;100586.28;;;33.64;54.06
23223;BME280;11780;13.904;100.620;2023-04-25T09:01:28;100582.59;;;33.60;53.25
23223;BME280;11780;13.904;100.620;2023-04-25T09:04:00;100571.03;;;33.58;52.75
23223;BME280;11780;13.904;100.620;2023-04-25T09:06:33;100572.53;;;33.55;53.17
23223;BME280;11780;13.904;100.620;2023-04-25T09:09:07;100566.19;;;33.54;53.09
23223;BME280;11780;13.904;100.620;2023-04-25T09:11:38;100560.53;;;33.51;53.73
23223;BME280;11780;13.904;100.620;2023-04-25T09:17:05;100521.34;;;33.40;56.49
23223;BME280;11780;13.904;100.620;2023-04-25T09:19:40;100500.22;;;33.35;57.12
23223;BME280;11780;13.904;100.620;2023-04-25T09:22:22;100481.47;;;33.32;58.49
23223;BME280;11780;13.904;100.620;2023-04-25T09:24:53;100470.38;;;33.32;58.47
23223;BME280;11780;13.904;100.620;2023-04-25T09:27:27;100449.00;;;33.33;58.73
23223;BME280;11780;13.904;100.620;2023-04-25T09:30:15;100431.56;;;33.32;58.66
23223;BME280;11780;13.904;100.620;2023-04-25T09:33:07;100409.31;;;33.29;58.57
23223;BME280;11780;13.904;100.620;2023-04-25T09:35:43;100404.66;;;33.33;58.47
23223;BME280;11780;13.904;100.620;2023-04-25T09:38:21;100398.53;;;33.27;58.69
23223;BME280;11780;13.904;100.620;2023-04-25T09:40:52;100405.38;;;33.30;58.51
23223;BME280;11780;13.904;100.620;2023-04-25T09:43:32;100416.34;;;33.26;58.02
23223;BME280;11780;13.904;100.620;2023-04-25T09:46:07;100435.41;;;33.28;58.43
23223;BME280;11780;13.904;100.620;2023-04-25T09:48:48;100453.28;;;33.30;58.30
23223;BME280;11780;13.904;100.620;2023-04-25T09:51:30;100469.91;;;33.30;58.37
23223;BME280;11780;13.904;100.620;2023-04-25T09:54:01;100470.38;;;33.32;58.09
23223;BME280;11780;13.904;100.620;2023-04-25T09:56:43;100468.78;;;33.31;58.13
23223;BME280;11780;13.904;100.620;2023-04-25T09:59:20;100470.28;;;33.29;58.05
23223;BME280;11780;13.904;100.620;2023-04-25T10:01:52;100474.66;;;33.30;57.93
23223;BME280;11780;13.904;100.620;2023-04-25T10:04:33;100472.59;;;33.27;57.46
23223;BME280;11780;13.904;100.620;2023-04-25T10:07:09;100465.88;;;33.28;57.03
23223;BME280;11780;13.904;100.620;2023-04-25T10:09:44;100466.69;;;33.28;56.86
23223;BME280;11780;13.904;100.620;2023-04-25T10:12:17;100463.13;;;33.28;56.30
23223;BME280;11780;13.904;100.620;2023-04-25T10:14:48;100457.69;;;33.31;56.36
23223;BME280;11780;13.904;100.620;2023-04-25T10:17:20;100456.88;;;33.31;55.69
23223;BME280;11780;13.904;100.620;2023-04-25T10:19:51;100466.34;;;33.30;55.51
23223;BME280;11780;13.904;100.620;2023-04-25T10:22:32;100460.25;;;33.36;55.17
23223;BME280;11780;13.904;100.620;2023-04-25T10:25:05;100463.03;;;33.36;55.32
23223;BME280;11780;13.904;100.620;2023-04-25T10:27:36;100453.88;;;33.36;55.27
23223;BME280;11780;13.904;100.620;2023-04-25T10:30:13;100452.75;;;33.37;55.05
23223;BME280;11780;13.904;100.620;2023-04-25T10:32:45;100444.41;;;33.37;54.76
23223;BME280;11780;13.904;100.620;2023-04-25T10:35:28;100457.94;;;33.38;54.74
23223;BME280;11780;13.904;100.620;2023-04-25T10:40:31;100458.28;;;33.37;54.44
23223;BME280;11780;13.904;100.620;2023-04-25T10:46:01;100469.84;;;33.39;54.51
23223;BME280;11780;13.904;100.620;2023-04-25T10:48:31;100472.16;;;33.37;54.29
23223;BME280;11780;13.904;100.620;2023-04-25T10:51:12;100479.66;;;33.36;54.04
23223;BME280;11780;13.904;100.620;2023-04-25T10:53:46;100471.34;;;33.36;54.26
23223;BME280;11780;13.904;100.620;2023-04-25T10:56:19;100471.34;;;33.36;54.10
23223;BME280;11780;13.904;100.620;2023-04-25T10:58:50;100477.19;;;33.35;54.74
23223;BME280;11780;13.904;100.620;2023-04-25T11:01:24;100478.03;;;33.35;55.16
23223;BME280;11780;13.904;100.620;2023-04-25T11:03:58;100489.94;;;33.36;54.77
23223;BME280;11780;13.904;100.620;2023-04-25T11:06:37;100483.88;;;33.34;54.78
23223;BME280;11780;13.904;100.620;2023-04-25T11:09:12;100493.72;;;33.31;54.83
23223;BME280;11780;13.904;100.620;2023-04-25T11:11:43;100510.00;;;33.33;55.36
23223;BME280;11780;13.904;100.620;2023-04-25T11:14:13;100516.34;;;33.33;55.31
23223;BME280;11780;13.904;100.620;2023-04-25T11:16:43;100525.47;;;33.34;55.68
23223;BME280;11780;13.904;100.620;2023-04-25T11:19:14;100523.84;;;33.33;56.10
23223;BME280;11780;13.904;100.620;2023-04-25T11:21:44;100516.34;;;33.33;56.17
23223;BME280;11780;13.904;100.620;2023-04-25T11:24:16;100513.81;;;33.28;56.84
23223;BME280;11780;13.904;100.620;2023-04-25T11:26:47;100513.47;;;33.30;56.85
23223;BME280;11780;13.904;100.620;2023-04-25T11:29:18;100517.41;;;33.29;57.05
23223;BME280;11780;13.904;100.620;2023-04-25T11:31:48;100516.56;;;33.28;57.31
23223;BME280;11780;13.904;100.620;2023-04-25T11:34:19;100518.09;;;33.25;57.58
23223;BME280;11780;13.904;100.620;2023-04-25T11:36:50;100533.09;;;33.24;57.73
23223;BME280;11780;13.904;100.620;2023-04-25T11:39:21;100533.91;;;33.25;57.98
23223;BME280;11780;13.904;100.620;2023-04-25T11:41:54;100525.84;;;33.20;58.16
23223;BME280;11780;13.904;100.620;2023-04-25T11:44:28;100509.53;;;33.18;58.23
23223;BME280;11780;13.904;100.620;2023-04-25T11:46:58;100520.28;;;33.20;58.71
23223;BME280;11780;13.904;100.620;2023-04-25T11:49:32;100524.69;;;33.21;58.52
23223;BME280;11780;13.904;100.620;2023-04-25T11:52:03;100530.22;;;33.21;58.82
23223;BME280;11780;13.904;100.620;2023-04-25T11:54:37;100529.75;;;33.19;58.85
23223;BME280;11780;13.904;100.620;2023-04-25T11:57:07;100534.94;;;33.20;59.01
23223;BME280;11780;13.904;100.620;2023-04-25T11:59:37;100540.00;;;33.18;59.21
23223;BME280;11780;13.904;100.620;2023-04-25T12:02:07;100543.59;;;33.19;58.97
23223;BME280;11780;13.904;100.620;2023-04-25T12:04:41;100545.13;;;33.16;59.10
23223;BME280;11780;13.904;100.620;2023-04-25T12:07:12;100549.47;;;33.17;59.52
23223;BME280;11780;13.904;100.620;2023-04-25T12:09:43;100562.53;;;33.17;59.62
23223;BME280;11780;13.904;100.620;2023-04-25T12:12:13;100564.50;;;33.16;59.53
23223;BME280;11780;13.904;100.620;2023-04-25T12:14:47;100577.56;;;33.16;59.72
23223;BME280;11780;13.904;100.620;2023-04-25T12:17:22;100578.38;;;33.16;59.94
23223;BME280;11780;13.904;100.620;2023-04-25T12:19:53;100574.41;;;33.17;59.94
23223;BME280;11780;13.904;100.620;2023-04-25T12:22:24;100588.16;;;33.14;60.07
23223;BME280;11780;13.904;100.620;2023-04-25T12:24:54;100584.91;;;33.12;60.35
23223;BME280;11780;13.904;100.620;2023-04-25T12:27:26;100584.72;;;33.17;59.95
23223;BME280;11780;13.904;100.620;2023-04-25T12:29:57;100590.94;;;33.14;60.57
23223;BME280;11780;13.904;100.620;2023-04-25T12:32:28;100606.88;;;33.17;60.36
23223;BME280;11780;13.904;100.620;2023-04-25T12:34:58;100617.19;;;33.16;60.41
23223;BME280;11780;13.904;100.620;2023-04-25T12:37:32;100626.28;;;33.17;60.60
23223;BME280;11780;13.904;100.620;2023-04-25T12:40:05;100629.06;;;33.17;60.34
23223;BME280;11780;13.904;100.620;2023-04-25T12:42:37;100632.19;;;33.15;60.65
23223;BME280;11780;13.904;100.620;2023-04-25T12:45:08;100643.72;;;33.17;60.67
23223;BME280;11780;13.904;100.620;2023-04-25T12:47:42;100639.78;;;33.18;60.84
23223;BME280;11780;13.904;100.620;2023-04-25T12:50:14;100640.63;;;33.19;60.73
23223;BME280;11780;13.904;100.620;2023-04-25T12:52:48;100656.09;;;33.20;61.08
23223;BME280;11780;13.904;100.620;2023-04-25T12:55:18;100654.59;;;33.22;60.76
23223;BME280;11780;13.904;100.620;2023-04-25T13:07:44;100690.00;;;32.83;61.77
23223;BME280;11780;13.904;100.620;2023-04-25T13:10:15;100698.50;;;32.78;61.80
23223;BME280;11780;13.904;100.620;2023-04-25T13:12:46;100698.00;;;32.76;61.98
23223;BME280;11780;13.904;100.620;2023-04-25T13:15:17;100683.00;;;32.77;62.13
23223;BME280;11780;13.904;100.620;2023-04-25T13:17:48;100688.53;;;32.86;62.32
23223;BME280;11780;13.904;100.620;2023-04-25T13:20:19;100700.63;;;32.81;62.57
23223;BME280;11780;13.904;100.620;2023-04-25T13:22:52;100711.81;;;32.85;62.18
23223;BME280;11780;13.904;100.620;2023-04-25T13:25:22;100715.47;;;32.76;62.11